ANA617 RJTT-RJFM
Flight info
| Callsign | ANA617 |
|---|---|
| Flight time | N/A |
| Altitude | 30000 |
| Route | LAXAS Y56 TOHME Y54 RUPAP Y244 GREEN Y24 SUC Y402 RYUGU |
| Aircraft | B738/M-SDE2E3FGHIRWXY/LB1 |
Departure
| Time | 2026-04-30 05:02 |
|---|---|
| Airport | Tokyo Haneda International Airport (RJTT) |
Arrival
| Time | N/A |
|---|---|
| Airport | Miyazaki Airport (RJFM) |
| Time | Latitude | Longitude | Altitude | Speed | Heading |
|---|---|---|---|---|---|
| 2026-04-30 04:46 | 35.55762 | 139.78490 | 22 ft | 0 kts | 240° |
| 2026-04-30 04:48 | 35.55763 | 139.78493 | 22 ft | 2 kts | 240° |
| 2026-04-30 04:48 | 35.55776 | 139.78520 | 22 ft | 4 kts | 240° |
| 2026-04-30 04:48 | 35.55787 | 139.78544 | 21 ft | 4 kts | 238° |
| 2026-04-30 04:48 | 35.55805 | 139.78566 | 22 ft | 4 kts | 199° |
| 2026-04-30 04:49 | 35.55830 | 139.78569 | 23 ft | 4 kts | 163° |
| 2026-04-30 04:49 | 35.55845 | 139.78562 | 23 ft | 0 kts | 149° |
| 2026-04-30 04:52 | 35.55841 | 139.78565 | 21 ft | 2 kts | 149° |
| 2026-04-30 04:52 | 35.55820 | 139.78580 | 23 ft | 5 kts | 149° |
| 2026-04-30 04:53 | 35.55784 | 139.78606 | 22 ft | 6 kts | 150° |
| 2026-04-30 04:53 | 35.55748 | 139.78632 | 26 ft | 6 kts | 150° |
| 2026-04-30 04:53 | 35.55711 | 139.78657 | 23 ft | 6 kts | 150° |
| 2026-04-30 04:53 | 35.55676 | 139.78683 | 26 ft | 6 kts | 144° |
| 2026-04-30 04:54 | 35.55653 | 139.78732 | 25 ft | 8 kts | 98° |
| 2026-04-30 04:54 | 35.55678 | 139.78814 | 25 ft | 14 kts | 59° |
| 2026-04-30 04:54 | 35.55730 | 139.78923 | 24 ft | 13 kts | 59° |
| 2026-04-30 04:54 | 35.55732 | 139.79004 | 27 ft | 10 kts | 136° |
| 2026-04-30 04:55 | 35.55676 | 139.79048 | 27 ft | 10 kts | 150° |
| 2026-04-30 04:55 | 35.55618 | 139.79089 | 27 ft | 10 kts | 150° |
| 2026-04-30 04:55 | 35.55558 | 139.79132 | 26 ft | 10 kts | 150° |
| 2026-04-30 04:55 | 35.55492 | 139.79179 | 27 ft | 12 kts | 150° |
| 2026-04-30 04:56 | 35.55418 | 139.79231 | 28 ft | 12 kts | 150° |
| 2026-04-30 04:56 | 35.55345 | 139.79283 | 28 ft | 12 kts | 149° |
| 2026-04-30 04:56 | 35.55268 | 139.79338 | 27 ft | 13 kts | 150° |
| 2026-04-30 04:56 | 35.55185 | 139.79397 | 29 ft | 14 kts | 150° |
| 2026-04-30 04:57 | 35.55096 | 139.79460 | 26 ft | 15 kts | 150° |
| 2026-04-30 04:57 | 35.55005 | 139.79525 | 27 ft | 15 kts | 149° |
| 2026-04-30 04:57 | 35.54916 | 139.79588 | 27 ft | 15 kts | 150° |
| 2026-04-30 04:57 | 35.54834 | 139.79646 | 27 ft | 13 kts | 150° |
| 2026-04-30 04:58 | 35.54760 | 139.79698 | 25 ft | 12 kts | 150° |
| 2026-04-30 04:58 | 35.54688 | 139.79750 | 24 ft | 11 kts | 150° |
| 2026-04-30 04:58 | 35.54617 | 139.79800 | 25 ft | 12 kts | 149° |
| 2026-04-30 04:58 | 35.54539 | 139.79856 | 24 ft | 15 kts | 150° |
| 2026-04-30 04:59 | 35.54444 | 139.79922 | 21 ft | 16 kts | 150° |
| 2026-04-30 04:59 | 35.54346 | 139.79992 | 21 ft | 16 kts | 150° |
| 2026-04-30 04:59 | 35.54280 | 139.80043 | 23 ft | 9 kts | 131° |
| 2026-04-30 04:59 | 35.54274 | 139.80110 | 21 ft | 6 kts | 70° |
| 2026-04-30 05:00 | 35.54287 | 139.80141 | 25 ft | 2 kts | 60° |
| 2026-04-30 05:00 | 35.54292 | 139.80152 | 25 ft | 1 kts | 60° |
| 2026-04-30 05:00 | 35.54296 | 139.80160 | 25 ft | 1 kts | 60° |
| 2026-04-30 05:00 | 35.54304 | 139.80176 | 27 ft | 5 kts | 59° |
| 2026-04-30 05:01 | 35.54337 | 139.80225 | 31 ft | 10 kts | 25° |
| 2026-04-30 05:01 | 35.54401 | 139.80207 | 27 ft | 10 kts | 330° |
| 2026-04-30 05:01 | 35.54460 | 139.80164 | 27 ft | 10 kts | 329° |
| 2026-04-30 05:01 | 35.54574 | 139.80084 | 27 ft | 40 kts | 330° |
| 2026-04-30 05:02 | 35.54994 | 139.79787 | 28 ft | 98 kts | 330° |
| 2026-04-30 05:02 | 35.55734 | 139.79261 | 26 ft | 145 kts | 330° |
| 2026-04-30 05:02 | 35.56699 | 139.78586 | 229 ft | 165 kts | 331° |
| 2026-04-30 05:02 | 35.57711 | 139.77866 | 716 ft | 173 kts | 332° |
| 2026-04-30 05:03 | 35.58860 | 139.77417 | 1118 ft | 177 kts | 12° |
| 2026-04-30 05:03 | 35.59827 | 139.78156 | 1666 ft | 165 kts | 61° |
| 2026-04-30 05:03 | 35.60133 | 139.79551 | 1937 ft | 181 kts | 93° |
| 2026-04-30 05:03 | 35.59727 | 139.81091 | 2146 ft | 199 kts | 116° |
| 2026-04-30 05:04 | 35.59088 | 139.82693 | 2304 ft | 217 kts | 115° |
| 2026-04-30 05:04 | 35.58412 | 139.84385 | 2591 ft | 225 kts | 116° |
| 2026-04-30 05:04 | 35.57725 | 139.86120 | 3009 ft | 227 kts | 116° |
| 2026-04-30 05:04 | 35.57035 | 139.87870 | 3453 ft | 229 kts | 116° |
| 2026-04-30 05:05 | 35.56349 | 139.89614 | 3875 ft | 232 kts | 116° |
| 2026-04-30 05:05 | 35.55646 | 139.91405 | 4315 ft | 234 kts | 116° |
| 2026-04-30 05:05 | 35.54925 | 139.93201 | 4774 ft | 235 kts | 121° |
| 2026-04-30 05:06 | 35.52178 | 139.95084 | 5534 ft | 242 kts | 180° |
| 2026-04-30 05:06 | 35.50454 | 139.94837 | 5767 ft | 257 kts | 191° |
| 2026-04-30 05:06 | 35.48695 | 139.94398 | 6447 ft | 257 kts | 193° |
| 2026-04-30 05:06 | 35.46951 | 139.93958 | 7151 ft | 258 kts | 193° |
| 2026-04-30 05:07 | 35.45814 | 139.93503 | 7461 ft | 263 kts | 208° |
| 2026-04-30 05:07 | 35.44355 | 139.92139 | 8080 ft | 266 kts | 224° |
| 2026-04-30 05:07 | 35.43063 | 139.90476 | 8640 ft | 273 kts | 227° |
| 2026-04-30 05:07 | 35.41782 | 139.88725 | 9265 ft | 278 kts | 227° |
| 2026-04-30 05:08 | 35.40487 | 139.86952 | 9950 ft | 281 kts | 226° |
| 2026-04-30 05:08 | 35.39153 | 139.85142 | 10366 ft | 294 kts | 226° |
| 2026-04-30 05:08 | 35.37723 | 139.83218 | 10523 ft | 316 kts | 227° |
| 2026-04-30 05:08 | 35.36195 | 139.81173 | 10684 ft | 335 kts | 227° |
| 2026-04-30 05:09 | 35.34570 | 139.79011 | 10826 ft | 354 kts | 227° |
| 2026-04-30 05:09 | 35.32855 | 139.76737 | 10948 ft | 372 kts | 227° |
| 2026-04-30 05:09 | 35.31066 | 139.74380 | 11195 ft | 383 kts | 226° |
| 2026-04-30 05:09 | 35.29111 | 139.72140 | 11732 ft | 386 kts | 221° |
| 2026-04-30 05:10 | 35.27056 | 139.70029 | 12375 ft | 385 kts | 220° |
| 2026-04-30 05:10 | 35.24982 | 139.67945 | 12991 ft | 386 kts | 221° |
| 2026-04-30 05:10 | 35.22907 | 139.65847 | 13544 ft | 388 kts | 222° |
| 2026-04-30 05:10 | 35.20831 | 139.63721 | 14131 ft | 390 kts | 223° |
| 2026-04-30 05:11 | 35.18760 | 139.61578 | 14609 ft | 392 kts | 223° |
| 2026-04-30 05:11 | 35.16675 | 139.59411 | 15077 ft | 395 kts | 224° |
| 2026-04-30 05:11 | 35.14582 | 139.57229 | 15555 ft | 397 kts | 224° |
| 2026-04-30 05:11 | 35.12473 | 139.55034 | 16038 ft | 399 kts | 224° |
| 2026-04-30 05:12 | 35.10349 | 139.52825 | 16514 ft | 402 kts | 224° |
| 2026-04-30 05:12 | 35.08370 | 139.50430 | 16928 ft | 399 kts | 237° |
| 2026-04-30 05:12 | 35.07046 | 139.47476 | 17373 ft | 397 kts | 251° |
| 2026-04-30 05:12 | 35.06351 | 139.44227 | 17835 ft | 397 kts | 259° |
| 2026-04-30 05:13 | 35.05827 | 139.40906 | 18252 ft | 399 kts | 260° |
| 2026-04-30 05:13 | 35.05308 | 139.37562 | 18609 ft | 402 kts | 260° |
| 2026-04-30 05:13 | 35.04775 | 139.34211 | 18941 ft | 404 kts | 259° |
| 2026-04-30 05:13 | 35.04596 | 139.33115 | 19042 ft | 404 kts | 259° |
| 2026-04-30 05:14 | 35.01872 | 139.16831 | 20700 ft | 410 kts | 259° |
| 2026-04-30 05:15 | 35.01306 | 139.13419 | 21015 ft | 412 kts | 259° |
| 2026-04-30 05:15 | 35.00736 | 139.09989 | 21324 ft | 413 kts | 259° |
| 2026-04-30 05:15 | 35.00162 | 139.06542 | 21548 ft | 417 kts | 259° |
| 2026-04-30 05:15 | 34.99581 | 139.03063 | 21752 ft | 420 kts | 259° |
| 2026-04-30 05:16 | 34.98999 | 138.99572 | 22101 ft | 420 kts | 260° |
| 2026-04-30 05:16 | 34.98578 | 138.96042 | 22409 ft | 420 kts | 265° |
| 2026-04-30 05:16 | 34.98383 | 138.92485 | 22668 ft | 422 kts | 266° |
| 2026-04-30 05:16 | 34.98225 | 138.88949 | 22907 ft | 424 kts | 267° |
| 2026-04-30 05:17 | 34.98067 | 138.85353 | 23150 ft | 426 kts | 266° |
| 2026-04-30 05:17 | 34.97899 | 138.81738 | 23346 ft | 428 kts | 266° |
| 2026-04-30 05:17 | 34.97721 | 138.78104 | 23634 ft | 429 kts | 266° |
| 2026-04-30 05:17 | 34.97534 | 138.74474 | 23878 ft | 429 kts | 266° |
| 2026-04-30 05:18 | 34.97341 | 138.70836 | 24060 ft | 430 kts | 266° |
| 2026-04-30 05:18 | 34.97144 | 138.67193 | 24247 ft | 431 kts | 266° |
| 2026-04-30 05:18 | 34.96944 | 138.63544 | 24433 ft | 432 kts | 265° |
| 2026-04-30 05:18 | 34.96743 | 138.59891 | 24662 ft | 431 kts | 265° |
| 2026-04-30 05:19 | 34.96542 | 138.56238 | 24840 ft | 432 kts | 265° |
| 2026-04-30 05:19 | 34.96339 | 138.52578 | 24995 ft | 433 kts | 265° |
| 2026-04-30 05:19 | 34.96134 | 138.48903 | 25141 ft | 435 kts | 265° |
| 2026-04-30 05:19 | 34.95927 | 138.45211 | 25262 ft | 437 kts | 265° |
| 2026-04-30 05:20 | 34.95718 | 138.41510 | 25437 ft | 438 kts | 265° |
| 2026-04-30 05:20 | 34.95509 | 138.37805 | 25615 ft | 438 kts | 265° |
| 2026-04-30 05:20 | 34.95301 | 138.34154 | 25782 ft | 438 kts | 265° |
| 2026-04-30 05:20 | 34.95089 | 138.30437 | 25909 ft | 440 kts | 265° |
| 2026-04-30 05:21 | 34.94875 | 138.26724 | 26134 ft | 438 kts | 265° |
| 2026-04-30 05:21 | 34.94662 | 138.23028 | 26402 ft | 436 kts | 265° |
| 2026-04-30 05:21 | 34.94450 | 138.19346 | 26621 ft | 435 kts | 264° |
| 2026-04-30 05:21 | 34.94234 | 138.15665 | 26832 ft | 435 kts | 264° |
| 2026-04-30 05:22 | 34.94020 | 138.12000 | 27102 ft | 432 kts | 264° |
| 2026-04-30 05:22 | 34.93806 | 138.08350 | 27396 ft | 430 kts | 264° |
| 2026-04-30 05:22 | 34.93592 | 138.04720 | 27639 ft | 429 kts | 264° |
| 2026-04-30 05:22 | 34.93379 | 138.01100 | 27865 ft | 428 kts | 264° |
| 2026-04-30 05:23 | 34.93166 | 137.97485 | 28119 ft | 427 kts | 264° |
| 2026-04-30 05:23 | 34.92951 | 137.93882 | 28396 ft | 425 kts | 264° |
| 2026-04-30 05:23 | 34.92736 | 137.90297 | 28679 ft | 424 kts | 264° |
| 2026-04-30 05:23 | 34.92521 | 137.86721 | 28934 ft | 423 kts | 264° |
| 2026-04-30 05:24 | 34.92305 | 137.83155 | 29186 ft | 422 kts | 263° |
| 2026-04-30 05:24 | 34.92092 | 137.79587 | 29469 ft | 421 kts | 263° |
| 2026-04-30 05:24 | 34.91888 | 137.76039 | 29745 ft | 420 kts | 263° |
| 2026-04-30 05:24 | 34.91684 | 137.72489 | 29991 ft | 420 kts | 263° |
| 2026-04-30 05:25 | 34.91401 | 137.68956 | 30223 ft | 418 kts | 259° |
| 2026-04-30 05:25 | 34.90796 | 137.65511 | 30463 ft | 415 kts | 252° |
| 2026-04-30 05:25 | 34.89826 | 137.62209 | 30710 ft | 414 kts | 248° |
| 2026-04-30 05:25 | 34.88804 | 137.58939 | 30930 ft | 413 kts | 248° |
| 2026-04-30 05:26 | 34.87810 | 137.55704 | 31118 ft | 414 kts | 249° |
| 2026-04-30 05:26 | 34.86814 | 137.52417 | 31355 ft | 413 kts | 249° |
| 2026-04-30 05:26 | 34.85826 | 137.49150 | 31622 ft | 411 kts | 249° |
| 2026-04-30 05:26 | 34.84848 | 137.45885 | 31860 ft | 410 kts | 249° |
| 2026-04-30 05:27 | 34.83908 | 137.42620 | 32129 ft | 409 kts | 249° |
| 2026-04-30 05:27 | 34.82982 | 137.39349 | 32407 ft | 407 kts | 249° |
| 2026-04-30 05:27 | 34.82062 | 137.36093 | 32641 ft | 407 kts | 249° |
| 2026-04-30 05:27 | 34.81141 | 137.32840 | 32871 ft | 406 kts | 249° |
| 2026-04-30 05:28 | 34.80218 | 137.29596 | 33139 ft | 405 kts | 249° |
| 2026-04-30 05:28 | 34.79296 | 137.26368 | 33422 ft | 403 kts | 249° |
| 2026-04-30 05:28 | 34.78376 | 137.23152 | 33686 ft | 402 kts | 249° |
| 2026-04-30 05:28 | 34.77457 | 137.19949 | 33928 ft | 401 kts | 249° |
| 2026-04-30 05:29 | 34.76537 | 137.16744 | 34169 ft | 400 kts | 249° |
| 2026-04-30 05:29 | 34.75620 | 137.13554 | 34431 ft | 399 kts | 249° |
| 2026-04-30 05:29 | 34.74713 | 137.10395 | 34769 ft | 394 kts | 249° |
| 2026-04-30 05:29 | 34.73812 | 137.07269 | 35066 ft | 390 kts | 249° |
| 2026-04-30 05:30 | 34.72917 | 137.04164 | 35314 ft | 388 kts | 249° |
| 2026-04-30 05:30 | 34.72023 | 137.01068 | 35473 ft | 389 kts | 249° |
| 2026-04-30 05:30 | 34.71070 | 136.97990 | 35577 ft | 389 kts | 244° |
| 2026-04-30 05:30 | 34.69833 | 136.95068 | 35671 ft | 389 kts | 239° |
| 2026-04-30 05:31 | 34.68873 | 136.93231 | 35773 ft | 389 kts | 234° |
| 2026-04-30 05:31 | 34.66653 | 136.89772 | 36024 ft | 387 kts | 233° |
| 2026-04-30 05:31 | 34.63324 | 136.84675 | 36139 ft | 388 kts | 233° |
| 2026-04-30 05:32 | 34.60517 | 136.80363 | 36134 ft | 389 kts | 233° |
| 2026-04-30 05:32 | 34.57149 | 136.75182 | 36146 ft | 392 kts | 233° |
| 2026-04-30 05:33 | 34.53214 | 136.69128 | 36144 ft | 394 kts | 233° |
| 2026-04-30 05:33 | 34.50393 | 136.64792 | 36141 ft | 394 kts | 233° |
| 2026-04-30 05:34 | 34.46995 | 136.59575 | 36143 ft | 394 kts | 233° |
| 2026-04-30 05:34 | 34.43605 | 136.54375 | 36128 ft | 392 kts | 233° |
| 2026-04-30 05:35 | 34.40251 | 136.49243 | 36134 ft | 386 kts | 233° |
| 2026-04-30 05:35 | 34.36922 | 136.44156 | 36138 ft | 385 kts | 233° |
| 2026-04-30 05:36 | 34.33595 | 136.39078 | 36130 ft | 385 kts | 233° |
| 2026-04-30 05:36 | 34.30291 | 136.33959 | 36088 ft | 388 kts | 232° |
| 2026-04-30 05:37 | 34.26891 | 136.28920 | 36139 ft | 385 kts | 233° |
| 2026-04-30 05:37 | 34.23559 | 136.23830 | 36146 ft | 387 kts | 233° |
| 2026-04-30 05:38 | 34.20243 | 136.18663 | 36156 ft | 387 kts | 232° |
| 2026-04-30 05:38 | 34.16862 | 136.13614 | 36131 ft | 384 kts | 232° |
| 2026-04-30 05:39 | 34.13515 | 136.08584 | 36140 ft | 384 kts | 233° |
| 2026-04-30 05:39 | 34.10418 | 136.03382 | 36147 ft | 382 kts | 234° |
| 2026-04-30 05:40 | 34.08600 | 136.01010 | 35935 ft | 389 kts | 226° |
| 2026-04-30 05:40 | 34.06787 | 135.98615 | 36058 ft | 386 kts | 232° |
| 2026-04-30 05:40 | 34.03474 | 135.93549 | 36105 ft | 383 kts | 233° |
| 2026-04-30 05:41 | 34.00803 | 135.88111 | 35954 ft | 384 kts | 255° |
| 2026-04-30 05:41 | 33.99794 | 135.85204 | 36020 ft | 379 kts | 229° |
| 2026-04-30 05:41 | 33.97849 | 135.83041 | 36082 ft | 384 kts | 224° |
| 2026-04-30 05:42 | 33.95827 | 135.80885 | 35388 ft | 391 kts | 226° |
| 2026-04-30 05:42 | 33.93921 | 135.78578 | 34875 ft | 385 kts | 229° |
| 2026-04-30 05:42 | 33.92131 | 135.76191 | 34320 ft | 382 kts | 231° |
| 2026-04-30 05:42 | 33.90424 | 135.73779 | 34092 ft | 374 kts | 232° |
| 2026-04-30 05:43 | 33.88799 | 135.71283 | 33823 ft | 384 kts | 233° |
| 2026-04-30 05:43 | 33.87119 | 135.68732 | 33569 ft | 394 kts | 232° |
| 2026-04-30 05:43 | 33.85368 | 135.66151 | 33325 ft | 402 kts | 232° |
| 2026-04-30 05:43 | 33.83590 | 135.63533 | 33074 ft | 407 kts | 232° |
| 2026-04-30 05:44 | 33.81798 | 135.60887 | 32803 ft | 408 kts | 232° |
| 2026-04-30 05:44 | 33.80009 | 135.58239 | 32568 ft | 409 kts | 232° |
| 2026-04-30 05:44 | 33.78216 | 135.55578 | 32312 ft | 410 kts | 232° |
| 2026-04-30 05:44 | 33.76428 | 135.52919 | 32133 ft | 408 kts | 232° |
| 2026-04-30 05:45 | 33.72785 | 135.47651 | 32080 ft | 411 kts | 232° |
| 2026-04-30 05:45 | 33.69232 | 135.42291 | 32082 ft | 409 kts | 232° |
| 2026-04-30 05:46 | 33.65711 | 135.37010 | 32072 ft | 407 kts | 232° |
| 2026-04-30 05:46 | 33.62160 | 135.31734 | 32073 ft | 406 kts | 232° |
| 2026-04-30 05:47 | 33.58611 | 135.26483 | 32075 ft | 405 kts | 232° |
| 2026-04-30 05:47 | 33.55058 | 135.21236 | 32073 ft | 405 kts | 232° |
| 2026-04-30 05:48 | 33.51504 | 135.15991 | 32071 ft | 406 kts | 232° |
| 2026-04-30 05:48 | 33.47944 | 135.10745 | 32069 ft | 406 kts | 232° |
| 2026-04-30 05:49 | 33.44373 | 135.05491 | 32050 ft | 407 kts | 232° |
| 2026-04-30 05:49 | 33.41067 | 135.00011 | 32048 ft | 406 kts | 241° |
| 2026-04-30 05:50 | 33.38855 | 134.93796 | 32071 ft | 408 kts | 250° |
| 2026-04-30 05:50 | 33.37185 | 134.87353 | 32057 ft | 408 kts | 250° |
| 2026-04-30 05:51 | 33.35483 | 134.80873 | 32050 ft | 408 kts | 250° |
| 2026-04-30 05:51 | 33.33765 | 134.74402 | 32032 ft | 408 kts | 250° |
| 2026-04-30 05:52 | 33.32045 | 134.67948 | 32047 ft | 408 kts | 250° |
| 2026-04-30 05:52 | 33.30315 | 134.61493 | 32065 ft | 408 kts | 250° |
| 2026-04-30 05:53 | 33.28575 | 134.55047 | 32052 ft | 408 kts | 250° |
| 2026-04-30 05:53 | 33.26830 | 134.48599 | 32012 ft | 407 kts | 250° |
| 2026-04-30 05:54 | 33.25088 | 134.42167 | 32032 ft | 407 kts | 250° |
| 2026-04-30 05:54 | 33.23343 | 134.35735 | 32036 ft | 407 kts | 250° |
| 2026-04-30 05:55 | 33.21608 | 134.29354 | 32036 ft | 406 kts | 249° |
| 2026-04-30 05:55 | 33.19861 | 134.22945 | 31995 ft | 406 kts | 250° |
| 2026-04-30 05:56 | 33.18097 | 134.16560 | 32008 ft | 403 kts | 247° |
| 2026-04-30 05:56 | 33.15588 | 134.10623 | 32015 ft | 400 kts | 239° |
| 2026-04-30 05:57 | 33.12825 | 134.04856 | 32011 ft | 400 kts | 239° |
| 2026-04-30 05:57 | 33.10085 | 133.99085 | 31993 ft | 400 kts | 240° |
| 2026-04-30 05:58 | 33.07342 | 133.93299 | 32008 ft | 401 kts | 240° |
| 2026-04-30 05:58 | 33.04589 | 133.87500 | 31998 ft | 403 kts | 240° |
| 2026-04-30 05:59 | 33.01824 | 133.81678 | 32003 ft | 404 kts | 239° |
| 2026-04-30 05:59 | 32.99051 | 133.75855 | 31986 ft | 404 kts | 239° |
| 2026-04-30 06:00 | 32.96271 | 133.70027 | 31995 ft | 405 kts | 239° |
| 2026-04-30 06:00 | 32.93502 | 133.64231 | 31987 ft | 405 kts | 239° |
| 2026-04-30 06:01 | 32.90731 | 133.58410 | 31990 ft | 404 kts | 240° |
| 2026-04-30 06:01 | 32.88722 | 133.52161 | 31987 ft | 406 kts | 250° |
| 2026-04-30 06:02 | 32.87156 | 133.45716 | 31981 ft | 405 kts | 250° |
| 2026-04-30 06:02 | 32.85567 | 133.39294 | 31978 ft | 404 kts | 249° |
| 2026-04-30 06:03 | 32.83964 | 133.32896 | 31962 ft | 403 kts | 249° |
| 2026-04-30 06:03 | 32.82362 | 133.26516 | 31965 ft | 403 kts | 249° |
| 2026-04-30 06:04 | 32.80818 | 133.20374 | 31978 ft | 403 kts | 249° |
| 2026-04-30 06:05 | 32.78410 | 133.10809 | 31946 ft | 403 kts | 249° |
| 2026-04-30 06:05 | 32.76795 | 133.04439 | 31953 ft | 402 kts | 248° |
| 2026-04-30 06:06 | 32.74397 | 132.98514 | 31941 ft | 396 kts | 237° |
| 2026-04-30 06:06 | 32.71118 | 132.93468 | 31932 ft | 370 kts | 229° |
| 2026-04-30 06:06 | 32.69457 | 132.91214 | 31924 ft | 355 kts | 229° |
| 2026-04-30 06:07 | 32.67884 | 132.89082 | 31920 ft | 341 kts | 229° |
| 2026-04-30 06:07 | 32.66334 | 132.86979 | 31916 ft | 327 kts | 229° |
| 2026-04-30 06:07 | 32.64866 | 132.84982 | 31907 ft | 314 kts | 229° |
| 2026-04-30 06:07 | 32.63463 | 132.83070 | 31910 ft | 301 kts | 229° |
| 2026-04-30 06:08 | 32.62133 | 132.81256 | 31907 ft | 289 kts | 229° |
| 2026-04-30 06:08 | 32.60844 | 132.79495 | 31906 ft | 277 kts | 229° |
| 2026-04-30 06:08 | 32.59585 | 132.77776 | 31920 ft | 278 kts | 229° |
| 2026-04-30 06:08 | 32.58298 | 132.76020 | 31932 ft | 286 kts | 229° |
| 2026-04-30 06:09 | 32.56974 | 132.74211 | 31944 ft | 295 kts | 229° |
| 2026-04-30 06:09 | 32.54203 | 132.70432 | 31521 ft | 310 kts | 229° |
| 2026-04-30 06:09 | 32.52791 | 132.68507 | 31129 ft | 311 kts | 229° |
| 2026-04-30 06:10 | 32.51370 | 132.66572 | 30697 ft | 311 kts | 229° |
| 2026-04-30 06:10 | 32.49952 | 132.64642 | 30249 ft | 310 kts | 229° |
| 2026-04-30 06:10 | 32.48536 | 132.62715 | 29814 ft | 310 kts | 229° |
| 2026-04-30 06:10 | 32.47122 | 132.60793 | 29349 ft | 310 kts | 229° |
| 2026-04-30 06:11 | 32.45707 | 132.58869 | 28869 ft | 309 kts | 229° |
| 2026-04-30 06:11 | 32.44292 | 132.56948 | 28352 ft | 311 kts | 229° |
| 2026-04-30 06:11 | 32.42858 | 132.55001 | 27762 ft | 315 kts | 229° |
| 2026-04-30 06:11 | 32.41410 | 132.53037 | 27190 ft | 318 kts | 230° |
| 2026-04-30 06:12 | 32.39949 | 132.51057 | 26633 ft | 320 kts | 230° |
| 2026-04-30 06:12 | 32.38476 | 132.49061 | 26092 ft | 323 kts | 230° |
| 2026-04-30 06:12 | 32.36992 | 132.47050 | 25532 ft | 325 kts | 230° |
| 2026-04-30 06:12 | 32.35499 | 132.45028 | 25003 ft | 328 kts | 231° |
| 2026-04-30 06:13 | 32.34016 | 132.43020 | 24488 ft | 330 kts | 231° |
| 2026-04-30 06:13 | 32.32484 | 132.40945 | 23967 ft | 331 kts | 231° |
| 2026-04-30 06:13 | 32.30966 | 132.38893 | 23482 ft | 332 kts | 231° |
| 2026-04-30 06:13 | 32.29441 | 132.36830 | 22888 ft | 334 kts | 231° |
| 2026-04-30 06:14 | 32.27930 | 132.34788 | 22288 ft | 335 kts | 231° |
| 2026-04-30 06:14 | 32.26388 | 132.32705 | 21660 ft | 337 kts | 231° |
| 2026-04-30 06:14 | 32.24839 | 132.30613 | 21028 ft | 340 kts | 231° |
| 2026-04-30 06:14 | 32.23279 | 132.28509 | 20429 ft | 342 kts | 230° |
| 2026-04-30 06:15 | 32.21712 | 132.26397 | 19838 ft | 343 kts | 230° |
| 2026-04-30 06:15 | 32.20134 | 132.24272 | 19260 ft | 345 kts | 230° |
| 2026-04-30 06:15 | 32.18551 | 132.22141 | 18686 ft | 346 kts | 230° |
| 2026-04-30 06:15 | 32.16963 | 132.20004 | 18148 ft | 347 kts | 230° |
| 2026-04-30 06:16 | 32.15355 | 132.17858 | 17544 ft | 350 kts | 230° |
| 2026-04-30 06:16 | 32.13735 | 132.15680 | 16933 ft | 355 kts | 230° |
| 2026-04-30 06:16 | 32.12095 | 132.13468 | 16301 ft | 361 kts | 230° |
| 2026-04-30 06:16 | 32.10433 | 132.11228 | 15690 ft | 365 kts | 230° |
| 2026-04-30 06:17 | 32.08755 | 132.08973 | 15038 ft | 366 kts | 230° |
| 2026-04-30 06:17 | 32.07078 | 132.06723 | 14556 ft | 362 kts | 230° |
| 2026-04-30 06:17 | 32.05444 | 132.04536 | 14418 ft | 348 kts | 230° |
| 2026-04-30 06:17 | 32.03877 | 132.02440 | 14324 ft | 334 kts | 230° |
| 2026-04-30 06:18 | 32.02369 | 132.00429 | 14240 ft | 321 kts | 230° |
| 2026-04-30 06:18 | 32.00920 | 131.98498 | 14176 ft | 309 kts | 230° |
| 2026-04-30 06:18 | 31.99525 | 131.96641 | 14095 ft | 297 kts | 230° |
| 2026-04-30 06:18 | 31.98180 | 131.94849 | 14022 ft | 286 kts | 230° |
| 2026-04-30 06:19 | 31.97317 | 131.93699 | 13963 ft | 279 kts | 230° |
| 2026-04-30 06:19 | 31.95623 | 131.91442 | 13698 ft | 272 kts | 230° |
| 2026-04-30 06:19 | 31.94793 | 131.90336 | 13473 ft | 272 kts | 230° |
| 2026-04-30 06:19 | 31.93135 | 131.88130 | 13034 ft | 270 kts | 230° |
| 2026-04-30 06:20 | 31.92295 | 131.87014 | 12835 ft | 269 kts | 230° |
| 2026-04-30 06:20 | 31.90777 | 131.84747 | 12412 ft | 266 kts | 245° |
| 2026-04-30 06:20 | 31.90355 | 131.83366 | 12201 ft | 265 kts | 255° |
| 2026-04-30 06:20 | 31.90102 | 131.81213 | 11892 ft | 265 kts | 263° |
| 2026-04-30 06:21 | 31.89997 | 131.79075 | 11585 ft | 265 kts | 264° |
| 2026-04-30 06:21 | 31.89896 | 131.76918 | 11284 ft | 263 kts | 264° |
| 2026-04-30 06:21 | 31.89781 | 131.74759 | 10797 ft | 268 kts | 263° |
| 2026-04-30 06:21 | 31.89775 | 131.72520 | 10189 ft | 280 kts | 270° |
| 2026-04-30 06:22 | 31.89920 | 131.70218 | 9647 ft | 282 kts | 270° |
| 2026-04-30 06:22 | 31.90070 | 131.67980 | 9555 ft | 267 kts | 270° |
| 2026-04-30 06:22 | 31.90222 | 131.65863 | 9438 ft | 252 kts | 270° |
| 2026-04-30 06:22 | 31.90659 | 131.63905 | 9307 ft | 247 kts | 290° |
| 2026-04-30 06:23 | 31.91416 | 131.62108 | 8917 ft | 245 kts | 288° |
| 2026-04-30 06:23 | 31.92087 | 131.60278 | 8529 ft | 243 kts | 286° |
| 2026-04-30 06:23 | 31.92703 | 131.58437 | 8129 ft | 241 kts | 285° |
| 2026-04-30 06:23 | 31.93288 | 131.56587 | 7636 ft | 243 kts | 284° |
| 2026-04-30 06:24 | 31.93870 | 131.54687 | 7105 ft | 250 kts | 285° |
| 2026-04-30 06:24 | 31.94464 | 131.52731 | 6553 ft | 259 kts | 285° |
| 2026-04-30 06:24 | 31.95074 | 131.50686 | 5912 ft | 270 kts | 284° |
| 2026-04-30 06:24 | 31.95362 | 131.48489 | 5202 ft | 276 kts | 265° |
| 2026-04-30 06:25 | 31.95143 | 131.46217 | 4510 ft | 283 kts | 261° |
| 2026-04-30 06:25 | 31.94933 | 131.43881 | 3770 ft | 292 kts | 264° |
| 2026-04-30 06:25 | 31.94764 | 131.41480 | 3206 ft | 293 kts | 265° |
| 2026-04-30 06:25 | 31.94602 | 131.39142 | 2958 ft | 281 kts | 265° |
| 2026-04-30 06:26 | 31.94195 | 131.36932 | 2605 ft | 275 kts | 242° |
| 2026-04-30 06:26 | 31.92997 | 131.35341 | 2301 ft | 254 kts | 206° |
| 2026-04-30 06:26 | 31.91396 | 131.34849 | 1950 ft | 229 kts | 173° |
| 2026-04-30 06:26 | 31.89905 | 131.35199 | 1601 ft | 212 kts | 154° |
| 2026-04-30 06:27 | 31.88668 | 131.36011 | 1246 ft | 196 kts | 136° |
| 2026-04-30 06:27 | 31.87835 | 131.37169 | 916 ft | 178 kts | 118° |
| 2026-04-30 06:27 | 31.87407 | 131.38475 | 577 ft | 163 kts | 96° |
| 2026-04-30 06:27 | 31.87328 | 131.39716 | 489 ft | 145 kts | 79° |
| 2026-04-30 06:28 | 31.87418 | 131.40942 | 540 ft | 153 kts | 80° |
| 2026-04-30 06:28 | 31.87501 | 131.42193 | 326 ft | 152 kts | 78° |
| 2026-04-30 06:28 | 31.87614 | 131.43440 | 73 ft | 154 kts | 83° |
| 2026-04-30 06:28 | 31.87700 | 131.44666 | 30 ft | 147 kts | 85° |
| 2026-04-30 06:29 | 31.87784 | 131.45774 | 30 ft | 119 kts | 75° |
| 2026-04-30 06:29 | 31.87802 | 131.46115 | 34 ft | 110 kts | 88° |